Time;durP1;ratioP1;P1;durP2;ratioP2;P2;SDS_P1;SDS_P2;PMS_P1;PMS_P2;Temp;Humidity;BMP_temperature;BMP_pressure;BME280_temperature;BME280_humidity;BME280_pressure;Samples;Min_cycle;Max_cycle;Signal;HPM_P1;HPM_P2
2023/05/05 00:00:56;;;;;;;70.60;7.40;;;17.00;1.00;;;;;;5077045;28;20459;-80
2023/05/05 00:03:23;;;;;;;69.50;7.57;;;17.00;1.00;;;;;;5076572;28;20448;-79
2023/05/05 00:05:53;;;;;;;71.40;7.87;;;17.00;1.00;;;;;;5076418;28;20449;-79
2023/05/05 00:08:19;;;;;;;68.33;7.50;;;17.10;1.00;;;;;;5076790;28;20402;-79
2023/05/05 00:10:46;;;;;;;69.80;8.03;;;17.10;1.00;;;;;;5076894;28;20442;-80
2023/05/05 00:13:13;;;;;;;72.37;8.10;;;17.10;1.00;;;;;;5076908;28;20405;-80
2023/05/05 00:15:43;;;;;;;70.20;7.90;;;17.10;1.00;;;;;;5076890;28;20418;-80
2023/05/05 00:18:10;;;;;;;71.20;8.00;;;17.10;1.00;;;;;;5078344;28;20499;-80
2023/05/05 00:20:36;;;;;;;72.03;7.30;;;17.00;1.00;;;;;;5081536;28;20489;-80
2023/05/05 00:23:02;;;;;;;69.13;7.50;;;16.90;1.00;;;;;;5081820;28;20382;-80
2023/05/05 00:25:28;;;;;;;70.10;8.23;;;16.90;1.00;;;;;;5080808;28;20528;-80
2023/05/05 00:27:54;;;;;;;69.40;8.17;;;16.90;1.00;;;;;;5081431;28;20182;-80
2023/05/05 00:30:20;;;;;;;69.50;7.20;;;16.90;1.00;;;;;;5079367;28;20441;-80
2023/05/05 00:32:49;;;;;;;69.10;7.40;;;16.90;1.00;;;;;;5080209;28;20482;-79
2023/05/05 00:35:15;;;;;;;71.10;8.20;;;16.90;1.00;;;;;;5080441;28;20279;-80
2023/05/05 00:37:41;;;;;;;70.67;7.90;;;16.90;1.00;;;;;;5079801;28;20755;-80
2023/05/05 00:40:07;;;;;;;74.93;8.07;;;16.80;1.00;;;;;;5080703;28;20536;-80
2023/05/05 00:42:41;;;;;;;69.80;8.10;;;16.70;1.00;;;;;;5080319;28;20164;-79
2023/05/05 00:45:11;;;;;;;69.07;8.40;;;16.70;1.00;;;;;;5080107;28;20429;-79
2023/05/05 00:47:37;;;;;;;71.57;8.50;;;16.70;1.00;;;;;;5080450;28;20429;-79
2023/05/05 00:50:09;;;;;;;69.90;7.43;;;16.70;1.00;;;;;;5080055;28;20946;-79
2023/05/05 00:52:36;;;;;;;69.27;7.47;;;16.50;4.20;;;;;;5080274;28;20854;-79
2023/05/05 00:55:03;;;;;;;68.60;7.70;;;16.40;8.40;;;;;;5079795;28;20475;-79
2023/05/05 00:57:29;;;;;;;69.70;7.87;;;16.50;4.30;;;;;;5078842;28;20500;-79
2023/05/05 00:59:55;;;;;;;72.73;9.57;;;16.50;4.20;;;;;;5080211;28;20438;-79
2023/05/05 01:02:21;;;;;;;71.50;8.67;;;16.40;8.70;;;;;;5080096;28;20505;-79
2023/05/05 01:04:47;;;;;;;70.30;7.90;;;16.30;17.20;;;;;;5078362;28;20434;-80
2023/05/05 01:07:39;;;;;;;70.30;9.03;;;16.30;14.50;;;;;;5079675;28;20898;-79
2023/05/05 01:10:31;;;;;;;68.53;8.00;;;16.10;22.70;;;;;;5079391;28;20434;-79
2023/05/05 01:13:20;;;;;;;69.03;8.20;;;16.20;19.50;;;;;;5078274;28;20470;-79
2023/05/05 01:15:49;;;;;;;69.40;8.20;;;16.10;24.60;;;;;;5079428;28;20521;-79
2023/05/05 01:18:30;;;;;;;69.77;8.20;;;16.00;25.30;;;;;;5079759;28;20481;-79
2023/05/05 01:21:14;;;;;;;70.47;9.33;;;16.10;21.90;;;;;;5080146;28;20961;-79
2023/05/05 01:24:13;;;;;;;68.53;7.97;;;16.00;25.00;;;;;;5079545;28;20414;-80
2023/05/05 01:26:59;;;;;;;69.00;8.20;;;15.80;26.80;;;;;;5078189;28;20808;-79
2023/05/05 01:29:43;;;;;;;69.63;8.17;;;15.80;29.00;;;;;;5077081;28;20410;-79
2023/05/05 01:32:11;;;;;;;71.10;9.50;;;15.60;34.80;;;;;;5079736;28;20448;-79
2023/05/05 01:34:59;;;;;;;70.87;8.50;;;15.40;43.50;;;;;;5079378;28;20466;-79
2023/05/05 01:37:45;;;;;;;69.10;9.23;;;15.40;44.30;;;;;;5079311;28;20378;-79
2023/05/05 01:40:14;;;;;;;71.13;8.87;;;15.40;44.10;;;;;;5077457;28;20414;-79
2023/05/05 01:42:42;;;;;;;70.40;7.80;;;15.40;40.80;;;;;;5079599;28;20477;-79
2023/05/05 01:45:10;;;;;;;69.60;9.10;;;15.40;41.90;;;;;;5077809;28;20520;-79
2023/05/05 01:47:38;;;;;;;72.00;7.70;;;15.30;48.10;;;;;;5077853;28;20409;-79
2023/05/05 01:50:06;;;;;;;72.27;8.57;;;15.30;43.00;;;;;;5076879;28;20446;-79
2023/05/05 01:52:34;;;;;;;72.83;8.00;;;15.30;42.90;;;;;;5079160;28;20798;-79
2023/05/05 01:55:01;;;;;;;71.87;7.60;;;15.20;53.30;;;;;;5079093;28;20776;-79
2023/05/05 01:57:29;;;;;;;70.57;8.87;;;15.10;55.80;;;;;;5078890;28;20772;-79
2023/05/05 01:59:57;;;;;;;69.07;8.10;;;15.10;57.50;;;;;;5077383;28;20407;-79
2023/05/05 02:02:26;;;;;;;69.90;8.37;;;14.90;62.80;;;;;;5078481;28;20408;-79
2023/05/05 02:04:53;;;;;;;72.67;8.80;;;15.00;58.20;;;;;;5078140;28;20421;-79
2023/05/05 02:07:20;;;;;;;71.80;9.67;;;15.10;55.10;;;;;;5078411;28;20446;-79
2023/05/05 02:09:47;;;;;;;73.30;9.40;;;15.10;55.60;;;;;;5078468;28;20950;-79
2023/05/05 02:12:13;;;;;;;71.13;9.80;;;15.20;46.60;;;;;;5078512;28;20740;-79
2023/05/05 02:14:41;;;;;;;71.20;9.83;;;15.20;46.50;;;;;;5078122;28;21013;-79
2023/05/05 02:17:07;;;;;;;73.53;9.53;;;15.20;47.00;;;;;;5078765;28;20404;-79
2023/05/05 02:19:37;;;;;;;70.93;10.00;;;15.30;41.60;;;;;;5077290;28;20439;-79
2023/05/05 02:22:22;;;;;;;72.17;9.80;;;15.20;47.10;;;;;;5190371;22;20505;-79
2023/05/05 02:24:55;;;;;;;72.97;10.80;;;15.30;42.50;;;;;;5075779;28;20806;-79
2023/05/05 02:27:41;;;;;;;73.30;10.70;;;15.30;50.10;;;;;;5074954;28;20419;-79
2023/05/05 02:30:26;;;;;;;79.53;9.97;;;15.20;52.60;;;;;;5075871;28;20468;-79
2023/05/05 02:33:10;;;;;;;75.20;11.33;;;15.20;51.60;;;;;;5075480;28;20484;-79
2023/05/05 02:36:28;;;;;;;71.07;10.33;;;15.10;59.20;;;;;;5074045;28;20447;-79
2023/05/05 02:38:47;;;;;;;71.40;9.90;;;15.10;56.20;;;;;;5060731;28;20490;-80
2023/05/05 02:41:27;;;;;;;73.57;9.60;;;15.10;58.00;;;;;;5075439;28;20435;-80
2023/05/05 02:44:29;;;;;;;72.37;10.37;;;15.00;59.60;;;;;;5075599;28;20505;-80
2023/05/05 02:47:05;;;;;;;72.17;10.17;;;14.90;64.60;;;;;;5074651;28;20411;-80
2023/05/05 02:49:33;;;;;;;73.83;9.47;;;15.10;50.30;;;;;;5074094;28;20942;-80
2023/05/05 02:52:13;;;;;;;71.70;10.63;;;15.10;58.40;;;;;;5074162;28;20860;-80
2023/05/05 02:55:37;;;;;;;71.57;10.60;;;14.90;68.00;;;;;;5076424;28;20408;-80
2023/05/05 02:58:05;;;;;;;71.60;10.93;;;14.90;68.90;;;;;;5066150;28;20396;-80
2023/05/05 03:01:32;;;;;;;74.70;10.87;;;14.90;61.40;;;;;;5077896;28;20381;-80
2023/05/05 03:04:17;;;;;;;74.60;10.60;;;14.70;70.60;;;;;;5062873;28;20577;-80
2023/05/05 03:07:10;;;;;;;73.90;10.00;;;14.60;80.00;;;;;;5075910;28;20411;-80
2023/05/05 03:10:22;;;;;;;71.00;10.30;;;14.60;77.80;;;;;;5075554;28;20818;-80
2023/05/05 03:13:01;;;;;;;73.23;10.67;;;14.50;87.30;;;;;;5054559;28;20404;-80
2023/05/05 03:15:47;;;;;;;74.77;10.80;;;14.40;90.60;;;;;;5054115;28;20890;-80
2023/05/05 03:21:54;;;;;;;73.27;10.77;;;14.20;97.80;;;;;;5069612;28;20410;-80
2023/05/05 03:24:30;;;;;;;74.67;10.40;;;14.10;97.90;;;;;;5099086;23;20910;-80
2023/05/05 03:27:20;;;;;;;72.40;11.10;;;14.20;96.60;;;;;;5076756;28;20438;-80
2023/05/05 03:30:05;;;;;;;72.90;11.00;;;14.10;99.90;;;;;;5075338;28;20415;-80
2023/05/05 03:32:53;;;;;;;73.17;11.47;;;14.20;97.70;;;;;;5076467;28;20956;-80
2023/05/05 03:35:32;;;;;;;73.70;11.40;;;14.10;98.70;;;;;;5132658;23;20535;-80
2023/05/05 03:38:03;;;;;;;85.13;11.63;;;14.30;92.10;;;;;;5076763;28;20451;-80
2023/05/05 03:41:08;;;;;;;73.83;11.23;;;14.10;97.90;;;;;;5076453;28;20922;-80
2023/05/05 03:43:59;;;;;;;74.50;11.10;;;14.10;97.50;;;;;;5074876;28;20423;-80
2023/05/05 03:46:43;;;;;;;72.90;11.37;;;13.90;99.90;;;;;;5076712;28;20410;-80
2023/05/05 03:49:36;;;;;;;73.63;9.17;;;14.10;95.00;;;;;;5076790;28;20967;-80
2023/05/05 03:52:17;;;;;;;71.37;10.90;;;13.90;99.90;;;;;;5076068;28;21031;-80
2023/05/05 03:54:46;;;;;;;72.13;10.83;;;13.80;99.90;;;;;;5076017;28;20444;-80
2023/05/05 03:57:15;;;;;;;73.70;10.53;;;13.80;99.90;;;;;;5074931;28;20438;-80
2023/05/05 03:59:53;;;;;;;72.03;10.60;;;13.90;99.90;;;;;;5076571;28;20410;-80
2023/05/05 04:02:27;;;;;;;74.80;11.13;;;13.70;99.90;;;;;;5076495;28;20398;-80
2023/05/05 04:05:09;;;;;;;72.13;10.27;;;13.70;99.90;;;;;;5075191;28;20421;-80
2023/05/05 04:08:12;;;;;;;;;;;;;;;;;;;;;
2023/05/05 04:11:06;;;;;;;72.70;11.40;;;13.70;99.90;;;;;;5071666;28;20450;-80
2023/05/05 04:13:51;;;;;;;71.90;10.43;;;13.60;99.90;;;;;;5076480;28;20949;-79
2023/05/05 04:16:42;;;;;;;73.60;10.70;;;13.70;99.90;;;;;;5076874;28;20370;-80
2023/05/05 04:19:31;;;;;;;73.90;10.40;;;13.70;99.90;;;;;;5076369;28;20375;-80
2023/05/05 04:21:56;;;;;;;73.97;10.60;;;13.60;99.90;;;;;;5075847;28;20498;-80
2023/05/05 04:24:26;;;;;;;73.77;10.30;;;13.60;99.90;;;;;;5074521;28;20517;-80
2023/05/05 04:27:30;;;;;;;74.77;10.50;;;13.70;99.90;;;;;;5075412;28;20248;-80
2023/05/05 04:30:15;;;;;;;74.77;10.80;;;13.80;99.90;;;;;;5074796;28;20429;-80
2023/05/05 04:33:18;;;;;;;77.00;11.90;;;13.80;99.90;;;;;;5074604;28;20374;-80
2023/05/05 04:36:26;;;;;;;74.50;11.17;;;13.80;99.90;;;;;;5078902;23;20984;-80
2023/05/05 04:39:05;;;;;;;74.23;10.97;;;13.80;99.90;;;;;;5072721;28;20418;-80
2023/05/05 04:47:31;;;;;;;72.07;11.03;;;14.20;99.90;;;;;;4973406;28;20401;-80
2023/05/05 04:50:25;;;;;;;74.33;12.00;;;14.20;99.90;;;;;;5124691;23;21040;-79
2023/05/05 04:53:12;;;;;;;73.07;11.80;;;14.20;99.90;;;;;;5074177;28;20395;-80
2023/05/05 04:56:14;;;;;;;72.60;13.73;;;14.20;99.90;;;;;;5074098;28;20426;-79
2023/05/05 04:58:43;;;;;;;74.97;12.97;;;14.20;99.90;;;;;;5071737;28;20495;-80
2023/05/05 05:01:09;;;;;;;72.97;11.70;;;14.20;99.90;;;;;;5072210;28;20422;-80
2023/05/05 05:03:41;;;;;;;81.33;12.10;;;14.40;99.90;;;;;;5072871;28;20410;-79
2023/05/05 05:06:17;;;;;;;73.70;10.20;;;14.50;99.90;;;;;;5077885;28;20212;-80
2023/05/05 05:09:27;;;;;;;80.03;11.87;;;14.60;99.90;;;;;;5077743;28;20868;-79
2023/05/05 05:12:30;;;;;;;;;;;;;;;;;;;;;
2023/05/05 05:14:59;;;;;;;72.77;11.80;;;14.70;99.90;;;;;;5075725;28;20441;-80
2023/05/05 05:17:36;;;;;;;74.70;12.60;;;14.60;99.90;;;;;;5076319;28;20413;-79
2023/05/05 05:20:18;;;;;;;73.33;10.37;;;14.70;99.90;;;;;;5077561;28;20393;-80
2023/05/05 05:22:50;;;;;;;73.80;11.83;;;14.80;99.90;;;;;;5075250;28;20410;-79
2023/05/05 05:25:31;;;;;;;75.23;11.73;;;14.80;99.90;;;;;;5076434;28;20438;-80
2023/05/05 05:28:17;;;;;;;72.83;11.50;;;14.80;99.90;;;;;;5076240;28;20411;-80
2023/05/05 05:30:56;;;;;;;74.10;11.80;;;14.90;99.90;;;;;;5077082;28;20456;-79
2023/05/05 05:34:08;;;;;;;73.37;13.37;;;15.00;99.90;;;;;;5078012;28;20383;-79
2023/05/05 05:37:02;;;;;;;71.73;12.00;;;15.10;99.90;;;;;;5077266;28;20464;-79
2023/05/05 05:39:41;;;;;;;75.87;12.83;;;15.20;99.90;;;;;;5077303;28;20442;-79
2023/05/05 05:42:16;;;;;;;73.53;12.53;;;15.20;99.90;;;;;;5077319;28;20405;-80
2023/05/05 05:44:58;;;;;;;83.10;14.90;;;15.20;99.90;;;;;;5077794;28;20429;-79
2023/05/05 05:47:27;;;;;;;75.40;14.00;;;15.20;99.90;;;;;;5077685;28;20379;-79
2023/05/05 05:50:08;;;;;;;73.77;11.57;;;15.40;99.90;;;;;;5075889;28;20878;-79
2023/05/05 05:52:57;;;;;;;77.40;13.07;;;15.50;99.90;;;;;;5077083;28;20787;-80
2023/05/05 05:55:47;;;;;;;83.20;12.87;;;15.60;99.90;;;;;;5078052;28;20778;-80
2023/05/05 05:58:25;;;;;;;73.87;13.67;;;15.70;99.90;;;;;;5078374;28;20510;-80
2023/05/05 06:03:48;;;;;;;77.80;16.20;;;15.90;99.90;;;;;;5047025;28;20532;-80
2023/05/05 06:06:46;;;;;;;75.97;18.00;;;15.90;99.90;;;;;;5078359;28;20407;-80
2023/05/05 06:09:26;;;;;;;74.57;16.53;;;16.00;99.90;;;;;;5077674;28;20928;-80
2023/05/05 06:12:24;;;;;;;73.00;16.67;;;16.10;99.90;;;;;;5078006;28;20451;-80
2023/05/05 06:15:15;;;;;;;74.40;18.80;;;16.10;99.90;;;;;;5071249;28;20472;-80
2023/05/05 06:18:06;;;;;;;77.30;19.07;;;16.20;99.90;;;;;;5076729;28;20788;-80
2023/05/05 06:21:23;;;;;;;;;;;;;;;;;;;;;
2023/05/05 06:24:11;;;;;;;77.00;18.37;;;16.40;99.90;;;;;;5076727;28;20507;-80
2023/05/05 06:27:31;;;;;;;;;;;;;;;;;;;;;
2023/05/05 06:34:17;;;;;;;74.20;15.93;;;16.70;99.90;;;;;;5015507;28;20417;-80
2023/05/05 06:36:41;;;;;;;74.47;16.23;;;16.80;99.90;;;;;;5056700;28;20917;-80
2023/05/05 06:39:11;;;;;;;74.40;17.03;;;16.90;99.90;;;;;;5076709;28;20390;-80
2023/05/05 06:41:56;;;;;;;81.53;17.70;;;17.00;99.90;;;;;;5076280;28;20251;-80
2023/05/05 06:44:35;;;;;;;76.30;18.27;;;17.10;99.90;;;;;;5076063;28;20424;-80
2023/05/05 06:47:20;;;;;;;74.10;17.07;;;17.10;99.90;;;;;;5074957;28;20421;-80
2023/05/05 06:50:43;;;;;;;75.97;19.33;;;17.10;99.90;;;;;;5075888;28;20516;-80
2023/05/05 06:53:23;;;;;;;78.57;19.53;;;17.20;99.90;;;;;;5065292;28;20501;-80
2023/05/05 06:56:10;;;;;;;77.87;20.93;;;17.30;99.90;;;;;;5072755;28;20501;-80
2023/05/05 06:58:38;;;;;;;77.60;21.47;;;17.40;99.90;;;;;;5076118;28;20430;-80
2023/05/05 07:01:30;;;;;;;79.77;24.17;;;17.50;99.90;;;;;;5075834;28;20770;-80
2023/05/05 07:03:59;;;;;;;77.57;22.90;;;17.60;99.90;;;;;;5073411;28;20434;-80
2023/05/05 07:06:32;;;;;;;79.57;22.53;;;17.60;99.90;;;;;;5074724;28;20481;-80
2023/05/05 07:09:03;;;;;;;79.67;18.73;;;17.70;99.90;;;;;;5075745;28;20387;-80
2023/05/05 07:11:32;;;;;;;75.87;17.07;;;17.90;99.90;;;;;;5075771;28;20430;-80
2023/05/05 07:14:22;;;;;;;76.37;17.90;;;17.90;99.90;;;;;;5074171;28;20432;-80
2023/05/05 07:19:22;;;;;;;77.97;18.30;;;18.10;99.90;;;;;;5072586;28;20795;-82
2023/05/05 07:22:09;;;;;;;78.13;16.67;;;18.20;99.90;;;;;;5057021;28;20917;-82
2023/05/05 07:24:40;;;;;;;78.10;15.40;;;18.30;99.90;;;;;;5075354;28;20418;-82
2023/05/05 07:27:16;;;;;;;76.20;15.80;;;18.40;99.90;;;;;;5074517;28;20731;-82
2023/05/05 07:30:24;;;;;;;85.23;15.43;;;18.40;99.90;;;;;;5074702;28;20398;-82
2023/05/05 07:32:56;;;;;;;77.87;14.10;;;18.50;99.90;;;;;;5050652;28;20414;-82
2023/05/05 07:35:30;;;;;;;87.10;14.67;;;18.50;96.80;;;;;;5074628;28;20421;-82
2023/05/05 07:38:17;;;;;;;80.33;13.10;;;18.50;96.40;;;;;;5057026;28;20398;-82
2023/05/05 07:40:59;;;;;;;78.60;15.43;;;18.60;95.90;;;;;;5075009;28;20777;-82
2023/05/05 07:43:35;;;;;;;77.73;14.47;;;18.60;91.70;;;;;;5075172;28;20393;-82
2023/05/05 07:46:12;;;;;;;79.43;14.10;;;18.70;91.80;;;;;;5057382;28;20461;-82
2023/05/05 07:48:44;;;;;;;78.63;14.63;;;18.60;93.40;;;;;;5056207;28;20418;-82
2023/05/05 07:51:21;;;;;;;77.87;15.03;;;18.70;89.60;;;;;;5074932;28;20813;-82
2023/05/05 07:53:50;;;;;;;75.50;14.73;;;18.70;90.90;;;;;;5075088;28;20441;-82
2023/05/05 07:56:24;;;;;;;79.90;12.83;;;18.80;90.80;;;;;;5075080;28;20399;-82
2023/05/05 07:58:56;;;;;;;74.97;10.30;;;18.80;74.30;;;;;;5057109;28;20443;-82
2023/05/05 08:01:22;;;;;;;76.70;11.93;;;18.80;69.90;;;;;;5057012;28;20429;-82
2023/05/05 08:03:59;;;;;;;80.57;11.20;;;18.90;77.70;;;;;;5056814;28;20430;-82
2023/05/05 08:06:26;;;;;;;75.80;9.50;;;18.90;63.40;;;;;;5074464;28;20163;-82
2023/05/05 08:08:57;;;;;;;72.07;9.50;;;18.90;49.80;;;;;;5074626;28;20407;-82
2023/05/05 08:11:26;;;;;;;71.40;9.00;;;19.00;43.70;;;;;;5074671;28;20445;-82
2023/05/05 08:14:00;;;;;;;73.87;8.97;;;19.00;49.00;;;;;;5074651;28;20421;-82
2023/05/05 08:16:25;;;;;;;73.70;8.60;;;19.10;43.20;;;;;;5074764;28;20378;-81
2023/05/05 08:19:16;;;;;;;73.93;9.07;;;19.10;32.30;;;;;;5074531;28;20471;-82
2023/05/05 08:21:42;;;;;;;76.50;11.60;;;19.10;33.40;;;;;;5124693;22;20213;-80
2023/05/05 08:24:08;;;;;;;73.83;9.90;;;19.10;33.40;;;;;;5014779;28;20515;-80
2023/05/05 08:26:33;;;;;;;78.43;11.00;;;19.20;37.00;;;;;;5014788;28;20162;-80
2023/05/05 08:29:00;;;;;;;76.30;11.80;;;19.40;41.80;;;;;;5013295;28;20635;-80
2023/05/05 08:31:35;;;;;;;76.17;11.50;;;19.50;31.60;;;;;;5013254;28;20190;-81
2023/05/05 08:34:03;;;;;;;79.90;12.60;;;19.60;31.40;;;;;;5014488;28;20424;-80
2023/05/05 08:36:28;;;;;;;73.93;11.50;;;19.70;28.00;;;;;;5013342;28;20413;-80
2023/05/05 08:38:54;;;;;;;81.40;13.27;;;19.70;23.80;;;;;;5015779;28;20765;-80
2023/05/05 08:41:20;;;;;;;76.13;14.13;;;19.70;10.40;;;;;;5018615;28;20158;-80
2023/05/05 08:43:49;;;;;;;76.00;11.90;;;19.70;13.40;;;;;;5017943;28;20608;-80
2023/05/05 08:46:15;;;;;;;77.47;12.83;;;19.80;9.80;;;;;;5017187;28;20167;-80
2023/05/05 08:48:42;;;;;;;75.77;13.20;;;19.90;14.20;;;;;;5018524;28;20401;-80
2023/05/05 08:51:12;;;;;;;79.83;15.17;;;20.00;16.80;;;;;;5016826;28;20873;-80
2023/05/05 08:53:47;;;;;;;79.80;15.63;;;20.10;12.30;;;;;;5016984;28;20419;-80
2023/05/05 08:56:16;;;;;;;79.67;14.10;;;20.20;15.70;;;;;;5018454;28;20414;-80
2023/05/05 08:58:43;;;;;;;79.80;15.50;;;20.20;17.70;;;;;;5020928;28;20480;-82
2023/05/05 09:01:09;;;;;;;81.67;15.60;;;20.20;14.60;;;;;;5022157;28;20410;-83
2023/05/05 09:03:36;;;;;;;84.83;17.93;;;20.20;13.60;;;;;;5021162;28;20407;-82
2023/05/05 09:06:03;;;;;;;83.70;16.20;;;20.10;18.00;;;;;;5021000;28;20413;-82
2023/05/05 09:08:30;;;;;;;83.70;16.97;;;20.10;19.40;;;;;;5021949;28;20407;-82
2023/05/05 09:10:56;;;;;;;84.43;17.00;;;20.10;19.80;;;;;;5021662;28;20440;-82
2023/05/05 09:13:22;;;;;;;77.90;15.17;;;20.30;15.60;;;;;;5020549;28;20400;-82
2023/05/05 09:15:48;;;;;;;79.03;14.60;;;20.40;15.30;;;;;;5020061;28;20193;-82
2023/05/05 09:18:13;;;;;;;80.20;15.17;;;20.50;13.80;;;;;;5021317;28;20459;-82
2023/05/05 09:20:40;;;;;;;78.30;13.77;;;20.50;15.60;;;;;;5021368;28;20172;-82
2023/05/05 09:23:06;;;;;;;79.80;14.70;;;20.50;7.50;;;;;;5020200;28;20207;-82
2023/05/05 09:25:32;;;;;;;78.43;13.07;;;20.50;4.80;;;;;;5020148;28;20432;-82
2023/05/05 09:27:58;;;;;;;73.80;11.23;;;20.50;4.20;;;;;;5022425;28;20547;-82
2023/05/05 09:30:24;;;;;;;76.50;11.93;;;20.50;2.40;;;;;;5020904;28;20189;-83
2023/05/05 09:32:52;;;;;;;76.30;12.50;;;20.80;7.50;;;;;;5022090;28;20624;-83
2023/05/05 09:35:19;;;;;;;74.23;11.67;;;20.90;1.00;;;;;;5022200;28;20945;-83
2023/05/05 09:37:45;;;;;;;75.30;13.03;;;21.00;1.60;;;;;;5021740;28;20407;-83
2023/05/05 09:40:16;;;;;;;73.57;11.70;;;21.20;1.00;;;;;;5022546;28;20408;-82
2023/05/05 09:42:43;;;;;;;72.60;12.00;;;21.20;1.00;;;;;;5022205;28;20172;-83
2023/05/05 09:45:18;;;;;;;79.23;12.67;;;21.20;1.00;;;;;;5022268;28;20450;-83
2023/05/05 09:47:45;;;;;;;76.10;12.40;;;21.20;1.00;;;;;;5022349;28;20458;-82
2023/05/05 09:50:14;;;;;;;80.77;12.50;;;21.10;1.00;;;;;;5021495;28;20448;-82
2023/05/05 09:52:41;;;;;;;72.87;12.70;;;21.20;1.00;;;;;;5021653;28;20408;-83
2023/05/05 09:55:17;;;;;;;76.77;13.37;;;21.30;1.00;;;;;;5021339;28;20428;-83
2023/05/05 09:57:42;;;;;;;74.23;12.33;;;21.60;1.00;;;;;;5021559;28;20382;-83
2023/05/05 10:00:09;;;;;;;76.10;11.30;;;21.90;1.00;;;;;;5022555;28;20410;-83
2023/05/05 10:02:38;;;;;;;75.00;13.17;;;22.20;1.00;;;;;;5020459;28;20546;-82
2023/05/05 10:05:17;;;;;;;73.77;11.67;;;22.50;1.00;;;;;;5019967;28;20425;-83
2023/05/05 10:07:45;;;;;;;75.07;13.63;;;22.80;1.00;;;;;;5019226;28;20401;-82
2023/05/05 10:10:13;;;;;;;75.23;12.40;;;22.90;1.00;;;;;;5020807;28;20812;-82
2023/05/05 10:12:39;;;;;;;75.17;12.90;;;23.20;1.00;;;;;;5021843;28;20393;-83
2023/05/05 10:15:07;;;;;;;73.97;12.67;;;23.10;1.00;;;;;;5019044;28;20483;-82
2023/05/05 10:17:47;;;;;;;77.70;12.20;;;22.90;1.00;;;;;;5020091;28;20500;-82
2023/05/05 10:20:14;;;;;;;98.23;14.50;;;22.80;1.00;;;;;;5020012;28;20417;-83
2023/05/05 10:22:47;;;;;;;75.20;14.07;;;22.80;1.00;;;;;;5019191;28;20431;-83
2023/05/05 10:25:14;;;;;;;79.67;12.93;;;22.90;1.00;;;;;;5020352;28;20468;-82
2023/05/05 10:27:45;;;;;;;78.90;13.70;;;23.10;1.00;;;;;;5020101;28;20405;-82
2023/05/05 10:30:28;;;;;;;73.00;12.83;;;23.40;1.00;;;;;;5017751;28;20528;-81
2023/05/05 10:32:59;;;;;;;73.10;9.40;;;23.30;1.00;;;;;;5016927;28;20385;-81
2023/05/05 10:35:27;;;;;;;71.70;8.27;;;23.20;1.00;;;;;;5016112;28;20928;-81
2023/05/05 10:37:57;;;;;;;72.47;7.40;;;23.30;1.00;;;;;;5016645;28;20504;-80
2023/05/05 10:40:23;;;;;;;69.90;6.13;;;23.30;1.00;;;;;;5016083;28;20420;-81
2023/05/05 10:42:50;;;;;;;68.70;5.47;;;23.50;1.00;;;;;;5014802;28;20428;-81
2023/05/05 10:45:16;;;;;;;70.43;6.60;;;23.60;1.00;;;;;;5014528;28;20433;-81
2023/05/05 10:47:43;;;;;;;69.33;6.00;;;23.50;1.00;;;;;;5016141;28;20908;-81
2023/05/05 10:50:25;;;;;;;70.17;5.80;;;23.40;1.00;;;;;;5016087;28;20166;-81
2023/05/05 10:53:02;;;;;;;69.67;7.47;;;23.30;1.00;;;;;;5016748;28;20386;-82
2023/05/05 10:56:26;;;;;;;69.83;6.30;;;22.90;1.00;;;;;;5016416;28;20413;-80
2023/05/05 10:58:52;;;;;;;68.70;6.13;;;22.50;1.00;;;;;;4994259;28;20418;-81
2023/05/05 11:01:31;;;;;;;72.00;5.50;;;22.40;1.00;;;;;;4994612;28;20417;-81
2023/05/05 11:04:20;;;;;;;69.50;5.70;;;22.20;1.00;;;;;;5006121;28;20280;-81
2023/05/05 11:07:07;;;;;;;71.27;7.40;;;22.10;1.00;;;;;;5015679;28;20738;-80
2023/05/05 11:09:40;;;;;;;68.87;7.40;;;21.90;1.00;;;;;;5015969;28;20401;-82
2023/05/05 11:12:08;;;;;;;71.57;9.33;;;21.60;1.00;;;;;;5016291;28;20429;-80
2023/05/05 11:14:35;;;;;;;74.17;10.97;;;21.30;1.00;;;;;;5015286;28;20452;-80
2023/05/05 11:17:00;;;;;;;74.30;14.87;;;21.30;1.00;;;;;;5015466;28;20485;-81
2023/05/05 11:19:55;;;;;;;71.70;12.30;;;21.00;1.00;;;;;;5015529;28;20833;-81
2023/05/05 11:22:21;;;;;;;72.10;9.03;;;20.80;12.90;;;;;;5006534;28;20240;-80
2023/05/05 11:24:47;;;;;;;70.17;5.77;;;20.30;65.00;;;;;;5015016;28;20440;-84
2023/05/05 11:27:12;;;;;;;69.77;5.47;;;19.30;82.20;;;;;;5015140;28;20170;-82
2023/05/05 11:30:07;;;;;;;75.10;7.83;;;18.90;92.40;;;;;;5016178;28;20193;-84
2023/05/05 11:32:33;;;;;;;71.27;5.20;;;18.60;95.90;;;;;;5016722;28;20206;-85
2023/05/05 11:35:00;;;;;;;73.80;5.10;;;18.40;99.90;;;;;;5017522;28;20414;-84
2023/05/05 11:37:27;;;;;;;70.80;6.10;;;18.00;99.90;;;;;;5017378;28;20250;-85
2023/05/05 11:40:08;;;;;;;68.90;6.97;;;17.90;99.90;;;;;;5015843;28;20455;-86
2023/05/05 11:42:34;;;;;;;70.17;7.87;;;17.60;99.90;;;;;;5017538;28;20805;-84
2023/05/05 11:45:01;;;;;;;67.67;7.80;;;17.50;99.90;;;;;;5016815;28;20421;-84
2023/05/05 11:47:28;;;;;;;69.07;8.10;;;17.40;99.90;;;;;;5016318;28;20401;-84
2023/05/05 11:49:54;;;;;;;72.43;8.87;;;17.40;99.90;;;;;;5016175;28;20903;-84
2023/05/05 11:52:24;;;;;;;71.27;9.53;;;17.40;99.90;;;;;;5015258;28;20408;-85
2023/05/05 11:54:50;;;;;;;73.93;9.33;;;17.40;99.90;;;;;;5015408;28;20544;-84
2023/05/05 11:57:19;;;;;;;70.97;9.20;;;17.50;99.90;;;;;;5016037;28;20884;-83
2023/05/05 11:59:59;;;;;;;72.20;11.17;;;17.50;99.90;;;;;;5013999;28;20440;-86
2023/05/05 12:02:26;;;;;;;73.30;11.87;;;17.70;99.90;;;;;;5015365;28;20405;-86
2023/05/05 12:04:53;;;;;;;73.97;14.90;;;17.90;99.90;;;;;;5015636;28;20429;-82
2023/05/05 12:07:21;;;;;;;71.00;13.67;;;18.00;99.90;;;;;;5017517;28;20472;-82
2023/05/05 12:09:50;;;;;;;75.80;15.27;;;18.10;99.90;;;;;;5018757;28;20393;-82
2023/05/05 12:12:16;;;;;;;76.37;17.77;;;18.30;99.90;;;;;;5018363;28;20451;-83
2023/05/05 12:14:46;;;;;;;71.57;11.97;;;18.50;99.90;;;;;;5015102;28;20423;-83
2023/05/05 12:17:12;;;;;;;69.57;12.30;;;18.70;99.90;;;;;;5014511;28;20405;-82
2023/05/05 12:19:44;;;;;;;69.57;10.93;;;18.90;99.90;;;;;;5013865;28;20495;-82
2023/05/05 12:22:20;;;;;;;72.63;17.27;;;19.10;99.90;;;;;;5013578;28;20482;-83
2023/05/05 12:24:58;;;;;;;70.03;13.30;;;19.10;99.90;;;;;;5014572;28;20424;-82
2023/05/05 12:27:25;;;;;;;69.37;13.70;;;19.30;99.90;;;;;;5013245;28;20912;-82
2023/05/05 12:29:53;;;;;;;71.30;15.47;;;19.40;99.90;;;;;;5013182;28;20417;-82
2023/05/05 12:32:26;;;;;;;69.03;12.60;;;19.50;99.90;;;;;;5014545;28;20411;-82
2023/05/05 12:34:56;;;;;;;71.27;10.93;;;19.60;99.90;;;;;;5013155;28;20793;-82
2023/05/05 12:37:23;;;;;;;72.87;12.47;;;19.50;99.90;;;;;;5014734;28;20401;-81
2023/05/05 12:39:49;;;;;;;70.90;11.07;;;19.60;99.90;;;;;;5014774;28;20398;-82
2023/05/05 12:42:15;;;;;;;70.20;10.07;;;19.60;99.90;;;;;;5014568;28;20765;-83
2023/05/05 12:45:32;;;;;;;68.97;11.57;;;19.60;99.90;;;;;;5064003;23;20863;-82
2023/05/05 12:48:24;;;;;;;67.17;7.73;;;19.70;99.90;;;;;;5053756;28;20421;-82
2023/05/05 12:51:14;;;;;;;67.47;8.17;;;19.70;99.90;;;;;;5036080;28;20445;-83
2023/05/05 12:54:11;;;;;;;69.00;10.53;;;19.60;99.90;;;;;;5053445;28;20403;-82
2023/05/05 12:56:49;;;;;;;67.73;8.30;;;19.60;99.90;;;;;;5053934;28;20384;-81
2023/05/05 12:59:49;;;;;;;69.13;7.30;;;19.70;99.90;;;;;;5053088;28;20461;-82
2023/05/05 13:02:16;;;;;;;70.30;10.37;;;19.80;99.90;;;;;;5027066;28;20405;-81
2023/05/05 13:04:55;;;;;;;69.70;9.03;;;19.90;99.90;;;;;;5053278;28;20933;-82
2023/05/05 13:07:36;;;;;;;71.70;10.70;;;20.00;99.90;;;;;;5053611;28;20379;-81
2023/05/05 13:10:10;;;;;;;69.70;10.40;;;20.10;99.90;;;;;;5035587;28;20442;-81
2023/05/05 13:12:36;;;;;;;71.80;10.00;;;20.10;99.90;;;;;;5035953;28;20421;-81
2023/05/05 13:15:05;;;;;;;68.90;9.83;;;20.20;99.90;;;;;;5053350;28;20421;-82
2023/05/05 13:17:39;;;;;;;71.33;9.83;;;20.20;99.90;;;;;;5053839;28;20158;-81
2023/05/05 13:20:08;;;;;;;69.37;9.87;;;20.40;99.90;;;;;;5053794;28;20379;-81
2023/05/05 13:22:45;;;;;;;70.77;11.27;;;20.40;99.90;;;;;;5053567;28;20403;-81
2023/05/05 13:25:28;;;;;;;69.77;9.67;;;20.50;99.90;;;;;;5030522;28;20442;-81
2023/05/05 13:28:30;;;;;;;73.00;12.03;;;20.70;99.90;;;;;;5040707;28;20418;-81
2023/05/05 13:31:43;;;;;;;73.43;13.40;;;20.70;99.90;;;;;;5056425;28;20445;-81
2023/05/05 13:34:34;;;;;;;71.37;13.50;;;20.70;99.90;;;;;;5055759;28;20869;-81
2023/05/05 13:37:24;;;;;;;70.50;13.30;;;20.70;97.20;;;;;;5038291;28;20441;-81
2023/05/05 13:40:42;;;;;;;73.53;16.37;;;20.60;99.80;;;;;;5056624;28;20863;-81
2023/05/05 13:43:18;;;;;;;75.20;14.93;;;20.50;99.90;;;;;;5039141;28;20420;-81
2023/05/05 13:46:20;;;;;;;;;;;;;;;;;;;;;